FAHS/HDS METAR and TAF weather

Enter ICAO airport designator
Station Type Date Time Source
FAHS METAR 2019/08/19 07:00 UTC NOAA

FAHS 190700Z AUTO 34007KT //// // ////// 22/08 Q1023


Station Type Date Time Source
FAHS Decoded METAR 2019/08/19 07:00 UTC NOAA

Station name not available
Aug 19, 2019 - 03:00 AM EDT / 2019.08.19 0700 UTC
Wind: from the NNW (340 degrees) at 8 MPH (7 KT):0
Temperature: 71 F (22 C)
Dew Point: 46 F (8 C)
Relative Humidity: 40%
Pressure (altimeter): 30.21 in. Hg (1023 hPa)
ob: FAHS 190700Z AUTO 34007KT //// // ////// 22/08 Q1023
cycle: 7

Station Type Date Time Source
FAHS TAF 2017/05/23 04:01 UTC NOAA

TAF FAHS 230300Z 2304/2315 VRB02KT CAVOK TX29/2312ZTN12/2304Z

Example: see airport list